sensor_id;sensor_type;location;lat;lon;timestamp;temperature;humidity
42617;DHT22;28250;52.320;0.360;2023-05-15T00:00:14;13.80;99.90
42617;DHT22;28250;52.320;0.360;2023-05-15T00:02:43;13.70;99.90
42617;DHT22;28250;52.320;0.360;2023-05-15T00:05:10;13.70;99.90
42617;DHT22;28250;52.320;0.360;2023-05-15T00:07:38;13.70;99.90
42617;DHT22;28250;52.320;0.360;2023-05-15T00:10:05;13.60;99.90
42617;DHT22;28250;52.320;0.360;2023-05-15T00:12:32;13.60;99.90
42617;DHT22;28250;52.320;0.360;2023-05-15T00:14:58;13.50;99.90
42617;DHT22;28250;52.320;0.360;2023-05-15T00:17:24;13.50;99.90
42617;DHT22;28250;52.320;0.360;2023-05-15T00:19:50;13.50;99.90
42617;DHT22;28250;52.320;0.360;2023-05-15T00:22:22;13.50;99.90
42617;DHT22;28250;52.320;0.360;2023-05-15T00:24:48;13.40;99.90
42617;DHT22;28250;52.320;0.360;2023-05-15T00:27:14;13.40;99.90
42617;DHT22;28250;52.320;0.360;2023-05-15T00:29:40;13.40;99.90
42617;DHT22;28250;52.320;0.360;2023-05-15T00:32:06;13.40;99.90
42617;DHT22;28250;52.320;0.360;2023-05-15T00:34:32;13.40;99.90
42617;DHT22;28250;52.320;0.360;2023-05-15T00:36:58;13.30;99.90
42617;DHT22;28250;52.320;0.360;2023-05-15T00:39:25;13.30;99.90
42617;DHT22;28250;52.320;0.360;2023-05-15T00:41:52;13.30;99.90
42617;DHT22;28250;52.320;0.360;2023-05-15T00:44:20;13.30;99.90
42617;DHT22;28250;52.320;0.360;2023-05-15T00:46:47;13.30;99.90
42617;DHT22;28250;52.320;0.360;2023-05-15T00:49:15;13.30;99.90
42617;DHT22;28250;52.320;0.360;2023-05-15T00:51:44;13.30;99.90
42617;DHT22;28250;52.320;0.360;2023-05-15T00:54:10;13.30;99.90
42617;DHT22;28250;52.320;0.360;2023-05-15T00:56:36;13.30;99.90
42617;DHT22;28250;52.320;0.360;2023-05-15T00:59:03;13.30;99.90
42617;DHT22;28250;52.320;0.360;2023-05-15T01:01:31;13.30;99.90
42617;DHT22;28250;52.320;0.360;2023-05-15T01:04:02;13.30;99.90
42617;DHT22;28250;52.320;0.360;2023-05-15T01:06:29;13.20;99.90
42617;DHT22;28250;52.320;0.360;2023-05-15T01:08:59;13.20;99.90
42617;DHT22;28250;52.320;0.360;2023-05-15T01:11:34;13.20;99.90
42617;DHT22;28250;52.320;0.360;2023-05-15T01:14:07;13.20;99.90
42617;DHT22;28250;52.320;0.360;2023-05-15T01:16:34;13.10;99.90
42617;DHT22;28250;52.320;0.360;2023-05-15T01:19:02;13.10;99.90
42617;DHT22;28250;52.320;0.360;2023-05-15T01:27:17;13.00;99.90
42617;DHT22;28250;52.320;0.360;2023-05-15T01:29:56;12.90;99.90
42617;DHT22;28250;52.320;0.360;2023-05-15T01:32:40;12.90;99.90
42617;DHT22;28250;52.320;0.360;2023-05-15T01:35:42;12.90;99.90
42617;DHT22;28250;52.320;0.360;2023-05-15T01:38:36;12.90;99.90
42617;DHT22;28250;52.320;0.360;2023-05-15T01:44:06;12.80;99.90
42617;DHT22;28250;52.320;0.360;2023-05-15T01:46:38;12.70;99.90
42617;DHT22;28250;52.320;0.360;2023-05-15T01:49:11;12.70;99.90
42617;DHT22;28250;52.320;0.360;2023-05-15T01:51:38;12.70;99.90
42617;DHT22;28250;52.320;0.360;2023-05-15T01:54:06;12.70;99.90
42617;DHT22;28250;52.320;0.360;2023-05-15T01:56:35;12.70;99.90
42617;DHT22;28250;52.320;0.360;2023-05-15T01:59:03;12.70;99.90
42617;DHT22;28250;52.320;0.360;2023-05-15T02:01:31;12.70;99.90
42617;DHT22;28250;52.320;0.360;2023-05-15T02:04:00;12.70;99.90
42617;DHT22;28250;52.320;0.360;2023-05-15T02:06:27;12.70;99.90
42617;DHT22;28250;52.320;0.360;2023-05-15T02:08:56;12.60;99.90
42617;DHT22;28250;52.320;0.360;2023-05-15T02:11:22;12.60;99.90
42617;DHT22;28250;52.320;0.360;2023-05-15T02:13:49;12.60;99.90
42617;DHT22;28250;52.320;0.360;2023-05-15T02:16:16;12.50;99.90
42617;DHT22;28250;52.320;0.360;2023-05-15T02:18:42;12.50;99.90
42617;DHT22;28250;52.320;0.360;2023-05-15T02:21:08;12.40;99.90
42617;DHT22;28250;52.320;0.360;2023-05-15T02:23:34;12.30;99.90
42617;DHT22;28250;52.320;0.360;2023-05-15T02:28:53;12.20;99.90
42617;DHT22;28250;52.320;0.360;2023-05-15T02:31:50;12.20;99.90
42617;DHT22;28250;52.320;0.360;2023-05-15T02:34:41;12.10;99.90
42617;DHT22;28250;52.320;0.360;2023-05-15T02:37:16;12.00;99.90
42617;DHT22;28250;52.320;0.360;2023-05-15T02:39:46;12.00;99.90
42617;DHT22;28250;52.320;0.360;2023-05-15T02:42:17;12.00;99.90
42617;DHT22;28250;52.320;0.360;2023-05-15T02:44:44;11.90;99.90
42617;DHT22;28250;52.320;0.360;2023-05-15T02:47:11;11.90;99.90
42617;DHT22;28250;52.320;0.360;2023-05-15T02:49:38;11.80;99.90
42617;DHT22;28250;52.320;0.360;2023-05-15T02:52:05;11.80;99.90
42617;DHT22;28250;52.320;0.360;2023-05-15T02:54:31;11.80;99.90
42617;DHT22;28250;52.320;0.360;2023-05-15T02:56:57;11.80;99.90
42617;DHT22;28250;52.320;0.360;2023-05-15T02:59:23;11.80;99.90
42617;DHT22;28250;52.320;0.360;2023-05-15T03:01:49;11.80;99.90
42617;DHT22;28250;52.320;0.360;2023-05-15T03:04:24;11.80;99.90
42617;DHT22;28250;52.320;0.360;2023-05-15T03:06:50;11.70;99.90
42617;DHT22;28250;52.320;0.360;2023-05-15T03:09:16;11.70;99.90
42617;DHT22;28250;52.320;0.360;2023-05-15T03:11:42;11.60;99.90
42617;DHT22;28250;52.320;0.360;2023-05-15T03:14:08;11.60;99.90
42617;DHT22;28250;52.320;0.360;2023-05-15T03:16:35;11.60;99.90
42617;DHT22;28250;52.320;0.360;2023-05-15T03:19:03;11.50;99.90
42617;DHT22;28250;52.320;0.360;2023-05-15T03:21:29;11.50;99.90
42617;DHT22;28250;52.320;0.360;2023-05-15T03:23:56;11.50;99.90
42617;DHT22;28250;52.320;0.360;2023-05-15T03:26:22;11.40;99.90
42617;DHT22;28250;52.320;0.360;2023-05-15T03:28:48;11.50;99.90
42617;DHT22;28250;52.320;0.360;2023-05-15T03:31:14;11.40;99.90
42617;DHT22;28250;52.320;0.360;2023-05-15T03:33:40;11.40;99.90
42617;DHT22;28250;52.320;0.360;2023-05-15T03:36:07;11.40;99.90
42617;DHT22;28250;52.320;0.360;2023-05-15T03:38:33;11.30;99.90
42617;DHT22;28250;52.320;0.360;2023-05-15T03:40:59;11.30;99.90
42617;DHT22;28250;52.320;0.360;2023-05-15T03:43:25;11.20;99.90
42617;DHT22;28250;52.320;0.360;2023-05-15T03:45:51;11.10;99.90
42617;DHT22;28250;52.320;0.360;2023-05-15T03:48:18;11.00;99.90
42617;DHT22;28250;52.320;0.360;2023-05-15T03:50:44;10.90;99.90
42617;DHT22;28250;52.320;0.360;2023-05-15T03:53:11;10.80;99.90
42617;DHT22;28250;52.320;0.360;2023-05-15T03:55:37;10.70;99.90
42617;DHT22;28250;52.320;0.360;2023-05-15T03:58:04;10.70;99.90
42617;DHT22;28250;52.320;0.360;2023-05-15T04:00:30;10.70;99.90
42617;DHT22;28250;52.320;0.360;2023-05-15T04:02:56;10.70;99.90
42617;DHT22;28250;52.320;0.360;2023-05-15T04:05:22;10.70;99.90
42617;DHT22;28250;52.320;0.360;2023-05-15T04:07:48;10.60;99.90
42617;DHT22;28250;52.320;0.360;2023-05-15T04:10:14;10.60;99.90
42617;DHT22;28250;52.320;0.360;2023-05-15T04:12:40;10.60;99.90
42617;DHT22;28250;52.320;0.360;2023-05-15T04:17:44;10.50;99.90
42617;DHT22;28250;52.320;0.360;2023-05-15T04:20:13;10.50;99.90
42617;DHT22;28250;52.320;0.360;2023-05-15T04:22:41;10.40;99.90
42617;DHT22;28250;52.320;0.360;2023-05-15T04:25:08;10.40;99.90
42617;DHT22;28250;52.320;0.360;2023-05-15T04:27:36;10.30;99.90
42617;DHT22;28250;52.320;0.360;2023-05-15T04:30:03;10.30;99.90
42617;DHT22;28250;52.320;0.360;2023-05-15T04:32:30;10.30;99.90
42617;DHT22;28250;52.320;0.360;2023-05-15T04:35:02;10.30;99.90
42617;DHT22;28250;52.320;0.360;2023-05-15T04:37:35;10.30;99.90
42617;DHT22;28250;52.320;0.360;2023-05-15T04:40:01;10.30;99.90
42617;DHT22;28250;52.320;0.360;2023-05-15T04:42:29;10.20;99.90
42617;DHT22;28250;52.320;0.360;2023-05-15T04:44:55;10.20;99.90
42617;DHT22;28250;52.320;0.360;2023-05-15T04:47:21;10.20;99.90
42617;DHT22;28250;52.320;0.360;2023-05-15T04:49:47;10.10;99.90
42617;DHT22;28250;52.320;0.360;2023-05-15T04:52:15;10.10;99.90
42617;DHT22;28250;52.320;0.360;2023-05-15T04:54:41;10.10;99.90
42617;DHT22;28250;52.320;0.360;2023-05-15T04:57:08;10.10;99.90
42617;DHT22;28250;52.320;0.360;2023-05-15T04:59:34;10.10;99.90
42617;DHT22;28250;52.320;0.360;2023-05-15T05:02:01;10.10;99.90
42617;DHT22;28250;52.320;0.360;2023-05-15T05:04:27;10.00;99.90
42617;DHT22;28250;52.320;0.360;2023-05-15T05:06:53;10.10;99.90
42617;DHT22;28250;52.320;0.360;2023-05-15T05:09:19;10.10;99.90
42617;DHT22;28250;52.320;0.360;2023-05-15T05:11:46;10.00;99.90
42617;DHT22;28250;52.320;0.360;2023-05-15T05:14:13;10.10;99.90
42617;DHT22;28250;52.320;0.360;2023-05-15T05:16:40;10.00;99.90
42617;DHT22;28250;52.320;0.360;2023-05-15T05:19:08;9.90;99.90
42617;DHT22;28250;52.320;0.360;2023-05-15T05:21:34;9.90;99.90
42617;DHT22;28250;52.320;0.360;2023-05-15T05:24:00;9.90;99.90
42617;DHT22;28250;52.320;0.360;2023-05-15T05:26:26;9.90;99.90
42617;DHT22;28250;52.320;0.360;2023-05-15T05:28:52;9.90;99.90
42617;DHT22;28250;52.320;0.360;2023-05-15T05:31:19;9.90;99.90
42617;DHT22;28250;52.320;0.360;2023-05-15T05:33:45;9.90;99.90
42617;DHT22;28250;52.320;0.360;2023-05-15T05:36:11;9.90;99.90
42617;DHT22;28250;52.320;0.360;2023-05-15T05:38:37;10.00;99.90
42617;DHT22;28250;52.320;0.360;2023-05-15T05:41:03;10.00;99.90
42617;DHT22;28250;52.320;0.360;2023-05-15T05:43:30;10.00;99.90
42617;DHT22;28250;52.320;0.360;2023-05-15T05:45:56;10.10;99.90
42617;DHT22;28250;52.320;0.360;2023-05-15T05:48:22;10.00;99.90
42617;DHT22;28250;52.320;0.360;2023-05-15T05:50:48;10.00;99.90
42617;DHT22;28250;52.320;0.360;2023-05-15T05:53:14;10.00;99.90
42617;DHT22;28250;52.320;0.360;2023-05-15T05:55:40;10.20;99.90
42617;DHT22;28250;52.320;0.360;2023-05-15T05:58:07;10.30;99.90
42617;DHT22;28250;52.320;0.360;2023-05-15T06:00:33;10.30;99.90
42617;DHT22;28250;52.320;0.360;2023-05-15T06:02:59;10.30;99.90
42617;DHT22;28250;52.320;0.360;2023-05-15T06:05:26;10.00;99.90
42617;DHT22;28250;52.320;0.360;2023-05-15T06:07:52;10.10;99.90
42617;DHT22;28250;52.320;0.360;2023-05-15T06:10:19;9.90;99.90
42617;DHT22;28250;52.320;0.360;2023-05-15T06:12:46;9.80;99.90
42617;DHT22;28250;52.320;0.360;2023-05-15T06:15:12;9.80;99.90
42617;DHT22;28250;52.320;0.360;2023-05-15T06:17:38;10.10;99.90
42617;DHT22;28250;52.320;0.360;2023-05-15T06:20:05;11.00;99.90
42617;DHT22;28250;52.320;0.360;2023-05-15T06:22:33;11.70;99.90
42617;DHT22;28250;52.320;0.360;2023-05-15T06:25:01;11.20;99.90
42617;DHT22;28250;52.320;0.360;2023-05-15T06:27:28;11.30;99.90
42617;DHT22;28250;52.320;0.360;2023-05-15T06:29:54;11.30;99.90
42617;DHT22;28250;52.320;0.360;2023-05-15T06:32:20;11.50;99.90
42617;DHT22;28250;52.320;0.360;2023-05-15T06:34:46;11.40;99.90
42617;DHT22;28250;52.320;0.360;2023-05-15T06:37:12;11.90;99.90
42617;DHT22;28250;52.320;0.360;2023-05-15T06:39:38;12.20;99.90
42617;DHT22;28250;52.320;0.360;2023-05-15T06:42:05;12.50;99.90
42617;DHT22;28250;52.320;0.360;2023-05-15T06:44:31;13.40;99.90
42617;DHT22;28250;52.320;0.360;2023-05-15T06:46:57;13.10;99.90
42617;DHT22;28250;52.320;0.360;2023-05-15T06:49:24;13.20;99.90
42617;DHT22;28250;52.320;0.360;2023-05-15T06:51:51;13.30;99.90
42617;DHT22;28250;52.320;0.360;2023-05-15T06:54:17;12.90;99.90
42617;DHT22;28250;52.320;0.360;2023-05-15T06:56:43;12.90;99.90
42617;DHT22;28250;52.320;0.360;2023-05-15T06:59:09;13.50;99.90
42617;DHT22;28250;52.320;0.360;2023-05-15T07:01:35;13.70;99.90
42617;DHT22;28250;52.320;0.360;2023-05-15T07:04:03;13.50;99.90
42617;DHT22;28250;52.320;0.360;2023-05-15T07:06:29;13.50;99.90
42617;DHT22;28250;52.320;0.360;2023-05-15T07:08:57;13.60;99.90
42617;DHT22;28250;52.320;0.360;2023-05-15T07:11:24;13.50;99.90
42617;DHT22;28250;52.320;0.360;2023-05-15T07:13:51;13.30;99.90
42617;DHT22;28250;52.320;0.360;2023-05-15T07:16:18;12.80;99.90
42617;DHT22;28250;52.320;0.360;2023-05-15T07:18:44;12.80;99.90
42617;DHT22;28250;52.320;0.360;2023-05-15T07:21:10;13.50;99.90
42617;DHT22;28250;52.320;0.360;2023-05-15T07:23:36;13.70;99.90
42617;DHT22;28250;52.320;0.360;2023-05-15T07:26:02;12.80;99.90
42617;DHT22;28250;52.320;0.360;2023-05-15T07:28:28;12.60;99.90
42617;DHT22;28250;52.320;0.360;2023-05-15T07:30:54;12.80;99.90
42617;DHT22;28250;52.320;0.360;2023-05-15T07:33:20;12.70;99.90
42617;DHT22;28250;52.320;0.360;2023-05-15T07:35:46;12.40;99.90
42617;DHT22;28250;52.320;0.360;2023-05-15T07:38:12;12.30;99.90
42617;DHT22;28250;52.320;0.360;2023-05-15T07:40:38;12.40;99.90
42617;DHT22;28250;52.320;0.360;2023-05-15T07:43:04;12.00;99.90
42617;DHT22;28250;52.320;0.360;2023-05-15T07:45:30;11.60;99.90
42617;DHT22;28250;52.320;0.360;2023-05-15T07:47:56;12.10;99.90
42617;DHT22;28250;52.320;0.360;2023-05-15T07:50:23;12.20;99.90
42617;DHT22;28250;52.320;0.360;2023-05-15T07:52:49;12.10;99.90
42617;DHT22;28250;52.320;0.360;2023-05-15T07:55:15;12.30;99.90
42617;DHT22;28250;52.320;0.360;2023-05-15T07:57:41;12.00;99.90
42617;DHT22;28250;52.320;0.360;2023-05-15T08:00:08;12.30;99.90
42617;DHT22;28250;52.320;0.360;2023-05-15T08:02:40;12.20;99.90
42617;DHT22;28250;52.320;0.360;2023-05-15T08:05:07;12.40;99.90
42617;DHT22;28250;52.320;0.360;2023-05-15T08:07:33;12.20;99.90
42617;DHT22;28250;52.320;0.360;2023-05-15T08:10:00;12.10;99.90
42617;DHT22;28250;52.320;0.360;2023-05-15T08:12:26;12.00;99.90
42617;DHT22;28250;52.320;0.360;2023-05-15T08:14:53;12.10;99.90
42617;DHT22;28250;52.320;0.360;2023-05-15T08:17:20;12.30;99.90
42617;DHT22;28250;52.320;0.360;2023-05-15T08:19:47;12.20;99.90
42617;DHT22;28250;52.320;0.360;2023-05-15T08:22:14;12.70;99.90
42617;DHT22;28250;52.320;0.360;2023-05-15T08:24:40;12.90;99.90
42617;DHT22;28250;52.320;0.360;2023-05-15T08:27:07;12.60;99.90
42617;DHT22;28250;52.320;0.360;2023-05-15T08:29:37;12.30;99.90
42617;DHT22;28250;52.320;0.360;2023-05-15T08:32:05;12.40;99.90
42617;DHT22;28250;52.320;0.360;2023-05-15T08:34:32;12.50;99.90
42617;DHT22;28250;52.320;0.360;2023-05-15T08:36:58;12.50;99.90
42617;DHT22;28250;52.320;0.360;2023-05-15T08:39:24;12.60;99.90
42617;DHT22;28250;52.320;0.360;2023-05-15T08:41:57;12.70;99.90
42617;DHT22;28250;52.320;0.360;2023-05-15T08:44:25;12.80;99.90
42617;DHT22;28250;52.320;0.360;2023-05-15T08:46:52;13.10;99.90
42617;DHT22;28250;52.320;0.360;2023-05-15T08:52:25;12.60;99.90
42617;DHT22;28250;52.320;0.360;2023-05-15T08:54:52;12.50;99.90
42617;DHT22;28250;52.320;0.360;2023-05-15T08:57:18;12.70;99.90
42617;DHT22;28250;52.320;0.360;2023-05-15T08:59:45;12.70;99.90
42617;DHT22;28250;52.320;0.360;2023-05-15T09:02:11;13.00;99.90
42617;DHT22;28250;52.320;0.360;2023-05-15T09:04:37;13.20;99.90
42617;DHT22;28250;52.320;0.360;2023-05-15T09:07:04;13.10;99.90
42617;DHT22;28250;52.320;0.360;2023-05-15T09:09:32;13.50;99.90
42617;DHT22;28250;52.320;0.360;2023-05-15T09:11:59;13.20;99.90
42617;DHT22;28250;52.320;0.360;2023-05-15T09:14:28;12.90;99.90
42617;DHT22;28250;52.320;0.360;2023-05-15T09:16:55;13.20;99.90
42617;DHT22;28250;52.320;0.360;2023-05-15T09:19:21;12.80;99.90
42617;DHT22;28250;52.320;0.360;2023-05-15T09:21:47;13.00;99.90
42617;DHT22;28250;52.320;0.360;2023-05-15T09:24:22;13.60;99.90
42617;DHT22;28250;52.320;0.360;2023-05-15T09:27:05;13.80;99.90
42617;DHT22;28250;52.320;0.360;2023-05-15T09:29:34;13.00;99.90
42617;DHT22;28250;52.320;0.360;2023-05-15T09:32:06;12.90;99.90
42617;DHT22;28250;52.320;0.360;2023-05-15T09:34:38;13.20;99.90
42617;DHT22;28250;52.320;0.360;2023-05-15T09:37:12;13.30;99.90
42617;DHT22;28250;52.320;0.360;2023-05-15T09:39:53;13.40;99.90
42617;DHT22;28250;52.320;0.360;2023-05-15T09:42:19;13.10;99.90
42617;DHT22;28250;52.320;0.360;2023-05-15T09:44:45;13.10;99.90
42617;DHT22;28250;52.320;0.360;2023-05-15T09:47:12;13.40;99.90
42617;DHT22;28250;52.320;0.360;2023-05-15T09:49:42;12.90;99.90
42617;DHT22;28250;52.320;0.360;2023-05-15T09:52:08;13.20;99.90
42617;DHT22;28250;52.320;0.360;2023-05-15T09:54:36;13.20;99.90
42617;DHT22;28250;52.320;0.360;2023-05-15T09:57:10;13.70;99.90
42617;DHT22;28250;52.320;0.360;2023-05-15T09:59:46;14.10;99.90
42617;DHT22;28250;52.320;0.360;2023-05-15T10:02:24;13.90;99.90
42617;DHT22;28250;52.320;0.360;2023-05-15T10:04:59;13.60;99.90
42617;DHT22;28250;52.320;0.360;2023-05-15T10:07:32;13.30;99.90
42617;DHT22;28250;52.320;0.360;2023-05-15T10:09:59;13.30;99.90
42617;DHT22;28250;52.320;0.360;2023-05-15T10:12:29;13.20;99.90
42617;DHT22;28250;52.320;0.360;2023-05-15T10:14:57;13.20;99.90
42617;DHT22;28250;52.320;0.360;2023-05-15T10:17:27;13.70;99.90
42617;DHT22;28250;52.320;0.360;2023-05-15T10:19:58;13.90;99.90
42617;DHT22;28250;52.320;0.360;2023-05-15T10:22:28;14.20;99.90
42617;DHT22;28250;52.320;0.360;2023-05-15T10:25:02;14.90;99.90
42617;DHT22;28250;52.320;0.360;2023-05-15T10:27:33;14.40;99.90
42617;DHT22;28250;52.320;0.360;2023-05-15T10:30:02;14.30;99.90
42617;DHT22;28250;52.320;0.360;2023-05-15T10:32:29;14.00;99.90
42617;DHT22;28250;52.320;0.360;2023-05-15T10:34:56;14.50;99.90
42617;DHT22;28250;52.320;0.360;2023-05-15T10:37:22;14.20;99.90
42617;DHT22;28250;52.320;0.360;2023-05-15T10:39:49;13.40;99.90
42617;DHT22;28250;52.320;0.360;2023-05-15T10:42:19;13.50;99.90
42617;DHT22;28250;52.320;0.360;2023-05-15T10:44:46;13.60;99.90
42617;DHT22;28250;52.320;0.360;2023-05-15T10:47:13;14.00;99.90
42617;DHT22;28250;52.320;0.360;2023-05-15T10:49:39;14.00;99.90
42617;DHT22;28250;52.320;0.360;2023-05-15T10:52:05;14.70;99.90
42617;DHT22;28250;52.320;0.360;2023-05-15T10:54:31;15.10;99.90
42617;DHT22;28250;52.320;0.360;2023-05-15T10:56:58;15.30;99.90
42617;DHT22;28250;52.320;0.360;2023-05-15T10:59:31;15.40;99.90
42617;DHT22;28250;52.320;0.360;2023-05-15T11:02:18;15.80;99.90
42617;DHT22;28250;52.320;0.360;2023-05-15T11:04:46;16.50;99.90
42617;DHT22;28250;52.320;0.360;2023-05-15T11:07:14;15.90;99.90
42617;DHT22;28250;52.320;0.360;2023-05-15T11:09:41;15.20;99.90
42617;DHT22;28250;52.320;0.360;2023-05-15T11:12:08;14.70;99.90
42617;DHT22;28250;52.320;0.360;2023-05-15T11:14:38;14.80;99.90
42617;DHT22;28250;52.320;0.360;2023-05-15T11:17:07;15.00;99.90
42617;DHT22;28250;52.320;0.360;2023-05-15T11:19:38;14.50;99.90
42617;DHT22;28250;52.320;0.360;2023-05-15T11:22:40;15.10;99.90
42617;DHT22;28250;52.320;0.360;2023-05-15T11:25:10;14.90;99.90
42617;DHT22;28250;52.320;0.360;2023-05-15T11:27:44;14.90;99.90
42617;DHT22;28250;52.320;0.360;2023-05-15T11:30:15;14.90;99.90
42617;DHT22;28250;52.320;0.360;2023-05-15T11:32:56;14.90;99.90
42617;DHT22;28250;52.320;0.360;2023-05-15T11:35:35;14.70;99.90
42617;DHT22;28250;52.320;0.360;2023-05-15T11:40:46;15.20;99.90
42617;DHT22;28250;52.320;0.360;2023-05-15T11:43:27;15.80;99.90
42617;DHT22;28250;52.320;0.360;2023-05-15T11:45:57;15.70;99.90
42617;DHT22;28250;52.320;0.360;2023-05-15T11:48:33;16.90;99.90
42617;DHT22;28250;52.320;0.360;2023-05-15T11:51:03;16.30;99.90
42617;DHT22;28250;52.320;0.360;2023-05-15T11:53:31;15.90;99.90
42617;DHT22;28250;52.320;0.360;2023-05-15T11:55:58;16.50;99.90
42617;DHT22;28250;52.320;0.360;2023-05-15T11:58:25;16.30;99.90
42617;DHT22;28250;52.320;0.360;2023-05-15T12:00:52;16.10;99.90
42617;DHT22;28250;52.320;0.360;2023-05-15T12:03:33;16.80;99.90
42617;DHT22;28250;52.320;0.360;2023-05-15T12:06:03;16.20;99.90
42617;DHT22;28250;52.320;0.360;2023-05-15T12:08:33;16.10;99.90
42617;DHT22;28250;52.320;0.360;2023-05-15T12:11:01;15.80;99.90
42617;DHT22;28250;52.320;0.360;2023-05-15T12:13:28;15.40;99.90
42617;DHT22;28250;52.320;0.360;2023-05-15T12:15:55;15.40;99.90
42617;DHT22;28250;52.320;0.360;2023-05-15T12:18:22;15.40;99.90
42617;DHT22;28250;52.320;0.360;2023-05-15T12:20:51;15.80;99.90
42617;DHT22;28250;52.320;0.360;2023-05-15T12:23:20;17.10;99.90
42617;DHT22;28250;52.320;0.360;2023-05-15T12:25:48;17.70;99.90
42617;DHT22;28250;52.320;0.360;2023-05-15T12:28:16;17.50;99.90
42617;DHT22;28250;52.320;0.360;2023-05-15T12:30:42;17.60;99.90
42617;DHT22;28250;52.320;0.360;2023-05-15T12:33:09;17.60;99.90
42617;DHT22;28250;52.320;0.360;2023-05-15T12:35:39;17.70;99.90
42617;DHT22;28250;52.320;0.360;2023-05-15T12:38:07;18.40;99.90
42617;DHT22;28250;52.320;0.360;2023-05-15T12:40:34;17.20;99.90
42617;DHT22;28250;52.320;0.360;2023-05-15T12:43:05;17.40;99.90
42617;DHT22;28250;52.320;0.360;2023-05-15T12:45:32;17.80;99.90
42617;DHT22;28250;52.320;0.360;2023-05-15T12:48:01;17.80;99.90
42617;DHT22;28250;52.320;0.360;2023-05-15T12:50:30;17.20;99.90
42617;DHT22;28250;52.320;0.360;2023-05-15T12:52:59;16.90;99.90
42617;DHT22;28250;52.320;0.360;2023-05-15T12:55:30;18.40;99.90
42617;DHT22;28250;52.320;0.360;2023-05-15T12:58:01;17.20;99.90
42617;DHT22;28250;52.320;0.360;2023-05-15T13:00:29;16.70;99.90
42617;DHT22;28250;52.320;0.360;2023-05-15T13:02:56;16.40;99.90
42617;DHT22;28250;52.320;0.360;2023-05-15T13:05:26;16.50;99.90
42617;DHT22;28250;52.320;0.360;2023-05-15T13:07:54;16.30;99.90
42617;DHT22;28250;52.320;0.360;2023-05-15T13:10:21;16.60;99.90
42617;DHT22;28250;52.320;0.360;2023-05-15T13:12:49;16.10;99.90
42617;DHT22;28250;52.320;0.360;2023-05-15T13:15:35;16.50;99.90
42617;DHT22;28250;52.320;0.360;2023-05-15T13:18:16;16.60;99.90
42617;DHT22;28250;52.320;0.360;2023-05-15T13:23:15;16.40;99.90
42617;DHT22;28250;52.320;0.360;2023-05-15T13:25:43;16.50;99.90
42617;DHT22;28250;52.320;0.360;2023-05-15T13:28:10;17.20;99.90
42617;DHT22;28250;52.320;0.360;2023-05-15T13:30:36;17.50;99.90
42617;DHT22;28250;52.320;0.360;2023-05-15T13:33:10;17.30;99.90
42617;DHT22;28250;52.320;0.360;2023-05-15T13:35:38;16.80;99.90
42617;DHT22;28250;52.320;0.360;2023-05-15T13:38:04;17.30;99.90
42617;DHT22;28250;52.320;0.360;2023-05-15T13:40:30;18.50;99.90
42617;DHT22;28250;52.320;0.360;2023-05-15T13:43:02;18.50;99.90
42617;DHT22;28250;52.320;0.360;2023-05-15T13:45:28;17.70;99.90
42617;DHT22;28250;52.320;0.360;2023-05-15T13:47:55;17.20;99.90
42617;DHT22;28250;52.320;0.360;2023-05-15T13:50:21;16.70;99.90
42617;DHT22;28250;52.320;0.360;2023-05-15T13:52:47;16.90;99.90
42617;DHT22;28250;52.320;0.360;2023-05-15T13:55:13;17.80;99.90
42617;DHT22;28250;52.320;0.360;2023-05-15T13:57:40;18.20;99.90
42617;DHT22;28250;52.320;0.360;2023-05-15T14:00:09;18.00;99.90
42617;DHT22;28250;52.320;0.360;2023-05-15T14:02:39;17.50;99.90
42617;DHT22;28250;52.320;0.360;2023-05-15T14:05:06;16.60;99.90
42617;DHT22;28250;52.320;0.360;2023-05-15T14:07:32;16.90;99.90
42617;DHT22;28250;52.320;0.360;2023-05-15T14:09:58;17.50;99.90
42617;DHT22;28250;52.320;0.360;2023-05-15T14:12:24;18.10;99.90
42617;DHT22;28250;52.320;0.360;2023-05-15T14:14:50;18.40;99.90
42617;DHT22;28250;52.320;0.360;2023-05-15T14:17:16;18.40;99.90
42617;DHT22;28250;52.320;0.360;2023-05-15T14:19:43;18.20;99.90
42617;DHT22;28250;52.320;0.360;2023-05-15T14:22:09;17.50;99.90
42617;DHT22;28250;52.320;0.360;2023-05-15T14:24:36;17.90;99.90
42617;DHT22;28250;52.320;0.360;2023-05-15T14:27:02;18.80;99.90
42617;DHT22;28250;52.320;0.360;2023-05-15T14:29:28;19.20;99.90
42617;DHT22;28250;52.320;0.360;2023-05-15T14:31:54;18.50;99.90
42617;DHT22;28250;52.320;0.360;2023-05-15T14:34:20;17.20;99.90
42617;DHT22;28250;52.320;0.360;2023-05-15T14:36:47;16.80;99.90
42617;DHT22;28250;52.320;0.360;2023-05-15T14:39:14;16.90;99.90
42617;DHT22;28250;52.320;0.360;2023-05-15T14:41:41;16.70;99.90
42617;DHT22;28250;52.320;0.360;2023-05-15T14:44:07;16.60;99.90
42617;DHT22;28250;52.320;0.360;2023-05-15T14:46:34;16.00;99.90
42617;DHT22;28250;52.320;0.360;2023-05-15T14:49:03;16.30;99.90
42617;DHT22;28250;52.320;0.360;2023-05-15T14:51:30;16.40;99.90
42617;DHT22;28250;52.320;0.360;2023-05-15T14:53:56;16.30;99.90
42617;DHT22;28250;52.320;0.360;2023-05-15T14:56:23;16.10;99.90
42617;DHT22;28250;52.320;0.360;2023-05-15T14:58:50;16.00;99.90
42617;DHT22;28250;52.320;0.360;2023-05-15T15:01:18;16.00;99.90
42617;DHT22;28250;52.320;0.360;2023-05-15T15:03:44;16.10;99.90
42617;DHT22;28250;52.320;0.360;2023-05-15T15:06:11;16.30;99.90
42617;DHT22;28250;52.320;0.360;2023-05-15T15:08:37;16.30;99.90
42617;DHT22;28250;52.320;0.360;2023-05-15T15:11:03;16.40;99.90
42617;DHT22;28250;52.320;0.360;2023-05-15T15:13:30;16.20;99.90
42617;DHT22;28250;52.320;0.360;2023-05-15T15:15:56;16.30;99.90
42617;DHT22;28250;52.320;0.360;2023-05-15T15:18:22;15.40;99.90
42617;DHT22;28250;52.320;0.360;2023-05-15T15:20:48;15.40;99.90
42617;DHT22;28250;52.320;0.360;2023-05-15T15:23:14;15.60;99.90
42617;DHT22;28250;52.320;0.360;2023-05-15T15:25:40;14.90;99.90
42617;DHT22;28250;52.320;0.360;2023-05-15T15:28:07;14.70;99.90
42617;DHT22;28250;52.320;0.360;2023-05-15T15:30:33;15.00;99.90
42617;DHT22;28250;52.320;0.360;2023-05-15T15:33:00;14.90;99.90
42617;DHT22;28250;52.320;0.360;2023-05-15T15:35:27;15.20;99.90
42617;DHT22;28250;52.320;0.360;2023-05-15T15:37:53;15.50;99.90
42617;DHT22;28250;52.320;0.360;2023-05-15T15:40:19;15.50;99.90
42617;DHT22;28250;52.320;0.360;2023-05-15T15:42:45;16.00;99.90
42617;DHT22;28250;52.320;0.360;2023-05-15T15:45:11;16.10;99.90
42617;DHT22;28250;52.320;0.360;2023-05-15T15:47:37;16.30;99.90
42617;DHT22;28250;52.320;0.360;2023-05-15T15:50:03;16.50;99.90
42617;DHT22;28250;52.320;0.360;2023-05-15T15:52:29;16.00;99.90
42617;DHT22;28250;52.320;0.360;2023-05-15T15:54:55;16.00;99.90
42617;DHT22;28250;52.320;0.360;2023-05-15T15:57:21;16.20;99.90
42617;DHT22;28250;52.320;0.360;2023-05-15T15:59:48;16.50;99.90